sensor_id;sensor_type;location;lat;lon;timestamp;P1;durP1;ratioP1;P2;durP2;ratioP2
53389;SDS011;39288;42.970;1.524;2024-03-08T00:00:27;23.35;;;15.40;;
53389;SDS011;39288;42.970;1.524;2024-03-08T00:01:28;24.13;;;17.73;;
53389;SDS011;39288;42.970;1.524;2024-03-08T00:02:28;28.17;;;18.37;;
53389;SDS011;39288;42.970;1.524;2024-03-08T00:03:29;19.23;;;13.13;;
53389;SDS011;39288;42.970;1.524;2024-03-08T00:04:30;21.73;;;12.18;;
53389;SDS011;39288;42.970;1.524;2024-03-08T00:05:30;19.70;;;10.40;;
53389;SDS011;39288;42.970;1.524;2024-03-08T00:06:31;16.90;;;10.37;;
53389;SDS011;39288;42.970;1.524;2024-03-08T00:07:32;12.70;;;8.90;;
53389;SDS011;39288;42.970;1.524;2024-03-08T00:08:33;19.27;;;9.60;;
53389;SDS011;39288;42.970;1.524;2024-03-08T00:09:33;13.83;;;7.73;;
53389;SDS011;39288;42.970;1.524;2024-03-08T00:10:34;13.80;;;7.83;;
53389;SDS011;39288;42.970;1.524;2024-03-08T00:11:34;15.47;;;8.53;;
53389;SDS011;39288;42.970;1.524;2024-03-08T00:12:34;15.40;;;7.27;;
53389;SDS011;39288;42.970;1.524;2024-03-08T00:13:35;12.77;;;6.60;;
53389;SDS011;39288;42.970;1.524;2024-03-08T00:14:36;14.13;;;7.07;;
53389;SDS011;39288;42.970;1.524;2024-03-08T00:15:37;16.40;;;7.00;;
53389;SDS011;39288;42.970;1.524;2024-03-08T00:16:37;17.10;;;7.73;;
53389;SDS011;39288;42.970;1.524;2024-03-08T00:17:38;12.27;;;6.30;;
53389;SDS011;39288;42.970;1.524;2024-03-08T00:18:39;12.77;;;5.83;;
53389;SDS011;39288;42.970;1.524;2024-03-08T00:19:39;12.43;;;5.40;;
53389;SDS011;39288;42.970;1.524;2024-03-08T00:21:41;11.50;;;5.75;;
53389;SDS011;39288;42.970;1.524;2024-03-08T00:22:42;9.67;;;4.67;;
53389;SDS011;39288;42.970;1.524;2024-03-08T00:23:43;12.13;;;5.88;;
53389;SDS011;39288;42.970;1.524;2024-03-08T00:24:44;19.13;;;10.90;;
53389;SDS011;39288;42.970;1.524;2024-03-08T00:25:45;13.95;;;6.85;;
53389;SDS011;39288;42.970;1.524;2024-03-08T00:26:45;11.30;;;5.73;;
53389;SDS011;39288;42.970;1.524;2024-03-08T00:27:46;8.30;;;6.07;;
53389;SDS011;39288;42.970;1.524;2024-03-08T00:28:49;12.23;;;5.45;;
53389;SDS011;39288;42.970;1.524;2024-03-08T00:29:49;10.33;;;4.77;;
53389;SDS011;39288;42.970;1.524;2024-03-08T00:30:50;9.70;;;5.07;;
53389;SDS011;39288;42.970;1.524;2024-03-08T00:31:50;10.07;;;5.13;;
53389;SDS011;39288;42.970;1.524;2024-03-08T00:32:51;15.47;;;7.93;;
53389;SDS011;39288;42.970;1.524;2024-03-08T00:33:51;20.57;;;8.57;;
53389;SDS011;39288;42.970;1.524;2024-03-08T00:34:55;14.40;;;7.22;;
53389;SDS011;39288;42.970;1.524;2024-03-08T00:35:56;15.95;;;10.10;;
53389;SDS011;39288;42.970;1.524;2024-03-08T00:36:57;16.90;;;9.63;;
53389;SDS011;39288;42.970;1.524;2024-03-08T00:37:58;13.88;;;7.85;;
53389;SDS011;39288;42.970;1.524;2024-03-08T00:38:58;12.37;;;5.73;;
53389;SDS011;39288;42.970;1.524;2024-03-08T00:40:00;13.18;;;7.03;;
53389;SDS011;39288;42.970;1.524;2024-03-08T00:41:01;19.93;;;12.17;;
53389;SDS011;39288;42.970;1.524;2024-03-08T00:42:02;18.73;;;13.00;;
53389;SDS011;39288;42.970;1.524;2024-03-08T00:43:03;20.45;;;13.55;;
53389;SDS011;39288;42.970;1.524;2024-03-08T00:44:04;22.80;;;13.10;;
53389;SDS011;39288;42.970;1.524;2024-03-08T00:45:04;18.00;;;11.60;;
53389;SDS011;39288;42.970;1.524;2024-03-08T00:46:05;16.40;;;7.60;;
53389;SDS011;39288;42.970;1.524;2024-03-08T00:47:05;21.17;;;10.83;;
53389;SDS011;39288;42.970;1.524;2024-03-08T00:48:06;17.93;;;11.27;;
53389;SDS011;39288;42.970;1.524;2024-03-08T00:49:06;17.50;;;10.63;;
53389;SDS011;39288;42.970;1.524;2024-03-08T00:50:07;19.70;;;10.20;;
53389;SDS011;39288;42.970;1.524;2024-03-08T00:51:08;15.10;;;7.70;;
53389;SDS011;39288;42.970;1.524;2024-03-08T00:52:09;10.93;;;6.57;;
53389;SDS011;39288;42.970;1.524;2024-03-08T00:53:09;14.77;;;8.67;;
53389;SDS011;39288;42.970;1.524;2024-03-08T00:54:11;16.85;;;7.53;;
53389;SDS011;39288;42.970;1.524;2024-03-08T00:55:11;17.57;;;9.63;;
53389;SDS011;39288;42.970;1.524;2024-03-08T00:56:12;12.73;;;6.93;;
53389;SDS011;39288;42.970;1.524;2024-03-08T00:57:12;18.23;;;8.80;;
53389;SDS011;39288;42.970;1.524;2024-03-08T00:58:13;20.23;;;7.90;;
53389;SDS011;39288;42.970;1.524;2024-03-08T00:59:13;15.07;;;7.57;;
53389;SDS011;39288;42.970;1.524;2024-03-08T01:00:14;14.20;;;7.13;;
53389;SDS011;39288;42.970;1.524;2024-03-08T01:01:14;13.67;;;6.90;;
53389;SDS011;39288;42.970;1.524;2024-03-08T01:02:15;10.38;;;6.60;;
53389;SDS011;39288;42.970;1.524;2024-03-08T01:03:18;15.27;;;8.77;;
53389;SDS011;39288;42.970;1.524;2024-03-08T01:04:19;18.90;;;7.77;;
53389;SDS011;39288;42.970;1.524;2024-03-08T01:05:20;13.10;;;5.68;;
53389;SDS011;39288;42.970;1.524;2024-03-08T01:06:20;21.30;;;7.73;;
53389;SDS011;39288;42.970;1.524;2024-03-08T01:07:21;15.10;;;7.03;;
53389;SDS011;39288;42.970;1.524;2024-03-08T01:08:21;12.27;;;7.27;;
53389;SDS011;39288;42.970;1.524;2024-03-08T01:09:23;12.88;;;5.13;;
53389;SDS011;39288;42.970;1.524;2024-03-08T01:10:24;10.85;;;5.80;;
53389;SDS011;39288;42.970;1.524;2024-03-08T01:11:25;11.57;;;5.60;;
53389;SDS011;39288;42.970;1.524;2024-03-08T01:12:25;10.47;;;5.97;;
53389;SDS011;39288;42.970;1.524;2024-03-08T01:13:26;13.20;;;4.43;;
53389;SDS011;39288;42.970;1.524;2024-03-08T01:14:26;9.40;;;5.17;;
53389;SDS011;39288;42.970;1.524;2024-03-08T01:15:27;7.97;;;4.17;;
53389;SDS011;39288;42.970;1.524;2024-03-08T01:16:27;7.53;;;3.83;;
53389;SDS011;39288;42.970;1.524;2024-03-08T01:17:27;8.10;;;3.90;;
53389;SDS011;39288;42.970;1.524;2024-03-08T01:18:28;8.77;;;4.50;;
53389;SDS011;39288;42.970;1.524;2024-03-08T01:19:29;10.35;;;4.65;;
53389;SDS011;39288;42.970;1.524;2024-03-08T01:20:32;10.82;;;5.35;;
53389;SDS011;39288;42.970;1.524;2024-03-08T01:21:32;8.37;;;5.00;;
53389;SDS011;39288;42.970;1.524;2024-03-08T01:22:33;8.87;;;4.50;;
53389;SDS011;39288;42.970;1.524;2024-03-08T01:23:33;9.87;;;3.87;;
53389;SDS011;39288;42.970;1.524;2024-03-08T01:24:34;8.02;;;3.60;;
53389;SDS011;39288;42.970;1.524;2024-03-08T01:25:35;5.93;;;2.80;;
53389;SDS011;39288;42.970;1.524;2024-03-08T01:26:35;7.03;;;2.93;;
53389;SDS011;39288;42.970;1.524;2024-03-08T01:27:36;8.27;;;3.50;;
53389;SDS011;39288;42.970;1.524;2024-03-08T01:28:36;7.90;;;4.63;;
53389;SDS011;39288;42.970;1.524;2024-03-08T01:29:37;8.60;;;4.20;;
53389;SDS011;39288;42.970;1.524;2024-03-08T01:30:37;8.13;;;4.03;;
53389;SDS011;39288;42.970;1.524;2024-03-08T01:31:38;5.93;;;3.73;;
53389;SDS011;39288;42.970;1.524;2024-03-08T01:32:39;7.50;;;3.60;;
53389;SDS011;39288;42.970;1.524;2024-03-08T01:33:39;9.77;;;3.43;;
53389;SDS011;39288;42.970;1.524;2024-03-08T01:34:40;6.93;;;2.43;;
53389;SDS011;39288;42.970;1.524;2024-03-08T01:35:40;11.63;;;4.13;;
53389;SDS011;39288;42.970;1.524;2024-03-08T01:36:41;6.90;;;3.50;;
53389;SDS011;39288;42.970;1.524;2024-03-08T01:37:42;6.10;;;2.83;;
53389;SDS011;39288;42.970;1.524;2024-03-08T01:38:42;5.77;;;3.00;;
53389;SDS011;39288;42.970;1.524;2024-03-08T01:39:43;5.97;;;3.37;;
53389;SDS011;39288;42.970;1.524;2024-03-08T01:40:43;4.27;;;2.60;;
53389;SDS011;39288;42.970;1.524;2024-03-08T01:41:44;7.13;;;3.03;;
53389;SDS011;39288;42.970;1.524;2024-03-08T01:42:44;7.50;;;3.23;;
53389;SDS011;39288;42.970;1.524;2024-03-08T01:43:45;4.97;;;2.47;;
53389;SDS011;39288;42.970;1.524;2024-03-08T01:44:45;6.20;;;3.23;;
53389;SDS011;39288;42.970;1.524;2024-03-08T01:45:46;8.03;;;3.27;;
53389;SDS011;39288;42.970;1.524;2024-03-08T01:46:47;4.90;;;3.13;;
53389;SDS011;39288;42.970;1.524;2024-03-08T01:47:49;8.90;;;3.70;;
53389;SDS011;39288;42.970;1.524;2024-03-08T01:48:49;7.50;;;2.60;;
53389;SDS011;39288;42.970;1.524;2024-03-08T01:49:50;4.57;;;2.50;;
53389;SDS011;39288;42.970;1.524;2024-03-08T01:50:51;4.73;;;2.70;;
53389;SDS011;39288;42.970;1.524;2024-03-08T01:51:54;5.82;;;2.50;;
53389;SDS011;39288;42.970;1.524;2024-03-08T01:52:56;5.88;;;1.73;;
53389;SDS011;39288;42.970;1.524;2024-03-08T01:54:00;9.82;;;2.53;;
53389;SDS011;39288;42.970;1.524;2024-03-08T01:55:03;5.75;;;2.20;;
53389;SDS011;39288;42.970;1.524;2024-03-08T01:56:07;4.97;;;2.30;;
53389;SDS011;39288;42.970;1.524;2024-03-08T01:57:08;4.55;;;1.60;;
53389;SDS011;39288;42.970;1.524;2024-03-08T01:58:09;9.83;;;3.90;;
53389;SDS011;39288;42.970;1.524;2024-03-08T01:59:11;4.43;;;1.73;;
53389;SDS011;39288;42.970;1.524;2024-03-08T02:00:14;4.78;;;1.90;;
53389;SDS011;39288;42.970;1.524;2024-03-08T02:02:16;6.38;;;1.80;;
53389;SDS011;39288;42.970;1.524;2024-03-08T02:03:18;3.70;;;1.50;;
53389;SDS011;39288;42.970;1.524;2024-03-08T02:04:19;4.57;;;1.40;;
53389;SDS011;39288;42.970;1.524;2024-03-08T02:05:21;4.88;;;1.65;;
53389;SDS011;39288;42.970;1.524;2024-03-08T02:06:23;2.63;;;1.17;;
53389;SDS011;39288;42.970;1.524;2024-03-08T02:07:23;3.23;;;1.20;;
53389;SDS011;39288;42.970;1.524;2024-03-08T02:08:24;6.23;;;1.80;;
53389;SDS011;39288;42.970;1.524;2024-03-08T02:09:24;10.87;;;5.33;;
53389;SDS011;39288;42.970;1.524;2024-03-08T02:10:25;6.07;;;2.47;;
53389;SDS011;39288;42.970;1.524;2024-03-08T02:11:25;6.30;;;3.53;;
53389;SDS011;39288;42.970;1.524;2024-03-08T02:12:26;7.75;;;3.50;;
53389;SDS011;39288;42.970;1.524;2024-03-08T02:13:27;7.80;;;3.57;;
53389;SDS011;39288;42.970;1.524;2024-03-08T02:14:28;8.48;;;2.30;;
53389;SDS011;39288;42.970;1.524;2024-03-08T02:16:51;5.32;;;2.05;;
53389;SDS011;39288;42.970;1.524;2024-03-08T02:17:52;5.83;;;1.70;;
53389;SDS011;39288;42.970;1.524;2024-03-08T02:18:53;6.00;;;2.10;;
53389;SDS011;39288;42.970;1.524;2024-03-08T02:19:53;5.13;;;2.07;;
53389;SDS011;39288;42.970;1.524;2024-03-08T02:20:54;4.53;;;2.40;;
53389;SDS011;39288;42.970;1.524;2024-03-08T02:21:55;6.32;;;2.05;;
53389;SDS011;39288;42.970;1.524;2024-03-08T02:22:57;6.30;;;1.67;;
53389;SDS011;39288;42.970;1.524;2024-03-08T02:23:57;5.53;;;2.20;;
53389;SDS011;39288;42.970;1.524;2024-03-08T02:24:58;4.33;;;1.70;;
53389;SDS011;39288;42.970;1.524;2024-03-08T02:26:01;5.68;;;2.55;;
53389;SDS011;39288;42.970;1.524;2024-03-08T02:27:02;4.50;;;2.20;;
53389;SDS011;39288;42.970;1.524;2024-03-08T02:28:02;3.37;;;1.80;;
53389;SDS011;39288;42.970;1.524;2024-03-08T02:29:03;5.50;;;2.50;;
53389;SDS011;39288;42.970;1.524;2024-03-08T02:30:05;4.10;;;2.05;;
53389;SDS011;39288;42.970;1.524;2024-03-08T02:31:06;2.15;;;1.35;;
53389;SDS011;39288;42.970;1.524;2024-03-08T02:32:08;5.13;;;1.67;;
53389;SDS011;39288;42.970;1.524;2024-03-08T02:33:08;2.90;;;1.00;;
53389;SDS011;39288;42.970;1.524;2024-03-08T02:34:09;2.53;;;1.07;;
53389;SDS011;39288;42.970;1.524;2024-03-08T02:35:09;3.73;;;1.17;;
53389;SDS011;39288;42.970;1.524;2024-03-08T02:36:10;2.53;;;1.10;;
53389;SDS011;39288;42.970;1.524;2024-03-08T02:37:11;4.97;;;1.75;;
53389;SDS011;39288;42.970;1.524;2024-03-08T02:38:16;5.27;;;2.00;;
53389;SDS011;39288;42.970;1.524;2024-03-08T02:39:18;3.40;;;1.10;;
53389;SDS011;39288;42.970;1.524;2024-03-08T02:40:19;5.05;;;1.52;;
53389;SDS011;39288;42.970;1.524;2024-03-08T02:41:20;6.53;;;1.30;;
53389;SDS011;39288;42.970;1.524;2024-03-08T02:42:21;4.13;;;1.43;;
53389;SDS011;39288;42.970;1.524;2024-03-08T02:43:21;2.87;;;2.00;;
53389;SDS011;39288;42.970;1.524;2024-03-08T02:44:22;5.50;;;1.60;;
53389;SDS011;39288;42.970;1.524;2024-03-08T02:45:23;3.23;;;1.33;;
53389;SDS011;39288;42.970;1.524;2024-03-08T02:46:24;2.08;;;0.88;;
53389;SDS011;39288;42.970;1.524;2024-03-08T02:47:24;4.27;;;1.27;;
53389;SDS011;39288;42.970;1.524;2024-03-08T02:48:26;3.83;;;1.60;;
53389;SDS011;39288;42.970;1.524;2024-03-08T02:49:26;5.10;;;1.27;;
53389;SDS011;39288;42.970;1.524;2024-03-08T02:50:27;5.00;;;1.27;;
53389;SDS011;39288;42.970;1.524;2024-03-08T02:51:28;4.57;;;1.30;;
53389;SDS011;39288;42.970;1.524;2024-03-08T02:52:30;6.22;;;1.33;;
53389;SDS011;39288;42.970;1.524;2024-03-08T02:53:31;2.63;;;0.87;;
53389;SDS011;39288;42.970;1.524;2024-03-08T02:54:31;3.53;;;1.27;;
53389;SDS011;39288;42.970;1.524;2024-03-08T02:55:32;3.93;;;1.37;;
53389;SDS011;39288;42.970;1.524;2024-03-08T02:56:35;3.25;;;1.10;;
53389;SDS011;39288;42.970;1.524;2024-03-08T02:57:36;3.20;;;1.00;;
53389;SDS011;39288;42.970;1.524;2024-03-08T02:58:37;5.23;;;1.17;;
53389;SDS011;39288;42.970;1.524;2024-03-08T02:59:37;4.73;;;1.23;;
53389;SDS011;39288;42.970;1.524;2024-03-08T03:00:40;4.35;;;1.55;;
53389;SDS011;39288;42.970;1.524;2024-03-08T03:01:41;3.38;;;1.60;;
53389;SDS011;39288;42.970;1.524;2024-03-08T03:02:41;1.90;;;1.10;;
53389;SDS011;39288;42.970;1.524;2024-03-08T03:03:42;4.80;;;1.52;;
53389;SDS011;39288;42.970;1.524;2024-03-08T03:04:43;4.77;;;1.30;;
53389;SDS011;39288;42.970;1.524;2024-03-08T03:05:43;5.47;;;1.60;;
53389;SDS011;39288;42.970;1.524;2024-03-08T03:06:44;3.90;;;1.90;;
53389;SDS011;39288;42.970;1.524;2024-03-08T03:07:44;4.03;;;1.60;;
53389;SDS011;39288;42.970;1.524;2024-03-08T03:08:45;2.83;;;1.30;;
53389;SDS011;39288;42.970;1.524;2024-03-08T03:09:45;3.07;;;1.30;;
53389;SDS011;39288;42.970;1.524;2024-03-08T03:10:46;4.10;;;2.17;;
53389;SDS011;39288;42.970;1.524;2024-03-08T03:11:46;7.37;;;2.37;;
53389;SDS011;39288;42.970;1.524;2024-03-08T03:12:47;3.80;;;2.03;;
53389;SDS011;39288;42.970;1.524;2024-03-08T03:13:51;5.43;;;2.20;;
53389;SDS011;39288;42.970;1.524;2024-03-08T03:14:51;4.90;;;2.53;;
53389;SDS011;39288;42.970;1.524;2024-03-08T03:15:52;6.60;;;2.37;;
53389;SDS011;39288;42.970;1.524;2024-03-08T03:16:52;6.27;;;2.23;;
53389;SDS011;39288;42.970;1.524;2024-03-08T03:17:53;4.30;;;2.00;;
53389;SDS011;39288;42.970;1.524;2024-03-08T03:18:53;6.13;;;2.20;;
53389;SDS011;39288;42.970;1.524;2024-03-08T03:19:54;5.17;;;2.23;;
53389;SDS011;39288;42.970;1.524;2024-03-08T03:20:55;2.65;;;1.30;;
53389;SDS011;39288;42.970;1.524;2024-03-08T03:21:56;7.63;;;2.00;;
53389;SDS011;39288;42.970;1.524;2024-03-08T03:22:57;5.87;;;2.13;;
53389;SDS011;39288;42.970;1.524;2024-03-08T03:23:57;5.17;;;1.70;;
53389;SDS011;39288;42.970;1.524;2024-03-08T03:24:59;3.45;;;1.55;;
53389;SDS011;39288;42.970;1.524;2024-03-08T03:26:02;3.70;;;1.60;;
53389;SDS011;39288;42.970;1.524;2024-03-08T03:27:03;6.43;;;1.93;;
53389;SDS011;39288;42.970;1.524;2024-03-08T03:28:10;4.97;;;1.65;;
53389;SDS011;39288;42.970;1.524;2024-03-08T03:29:14;4.15;;;1.52;;
53389;SDS011;39288;42.970;1.524;2024-03-08T03:30:16;5.80;;;1.88;;
53389;SDS011;39288;42.970;1.524;2024-03-08T03:31:23;3.72;;;1.30;;
53389;SDS011;39288;42.970;1.524;2024-03-08T03:32:25;4.72;;;1.85;;
53389;SDS011;39288;42.970;1.524;2024-03-08T03:33:26;4.30;;;1.50;;
53389;SDS011;39288;42.970;1.524;2024-03-08T03:34:27;3.67;;;1.27;;
53389;SDS011;39288;42.970;1.524;2024-03-08T03:36:29;9.57;;;1.55;;
53389;SDS011;39288;42.970;1.524;2024-03-08T03:37:30;3.17;;;1.48;;
53389;SDS011;39288;42.970;1.524;2024-03-08T03:38:31;4.83;;;1.53;;
53389;SDS011;39288;42.970;1.524;2024-03-08T03:39:31;2.87;;;1.23;;
53389;SDS011;39288;42.970;1.524;2024-03-08T03:40:33;6.50;;;1.70;;
53389;SDS011;39288;42.970;1.524;2024-03-08T03:41:34;3.28;;;1.17;;
53389;SDS011;39288;42.970;1.524;2024-03-08T03:42:34;3.97;;;1.60;;
53389;SDS011;39288;42.970;1.524;2024-03-08T03:43:35;7.40;;;1.47;;
53389;SDS011;39288;42.970;1.524;2024-03-08T03:44:35;5.80;;;2.20;;
53389;SDS011;39288;42.970;1.524;2024-03-08T03:45:36;4.13;;;1.17;;
53389;SDS011;39288;42.970;1.524;2024-03-08T03:46:36;4.10;;;1.80;;
53389;SDS011;39288;42.970;1.524;2024-03-08T03:47:37;4.03;;;1.37;;
53389;SDS011;39288;42.970;1.524;2024-03-08T03:48:38;4.28;;;1.70;;
53389;SDS011;39288;42.970;1.524;2024-03-08T03:49:39;6.20;;;1.30;;
53389;SDS011;39288;42.970;1.524;2024-03-08T03:50:40;3.33;;;1.15;;
53389;SDS011;39288;42.970;1.524;2024-03-08T03:51:41;5.67;;;1.60;;
53389;SDS011;39288;42.970;1.524;2024-03-08T03:52:41;5.83;;;1.40;;
53389;SDS011;39288;42.970;1.524;2024-03-08T03:53:42;2.63;;;1.20;;
53389;SDS011;39288;42.970;1.524;2024-03-08T03:54:42;1.97;;;0.93;;
53389;SDS011;39288;42.970;1.524;2024-03-08T03:55:43;6.03;;;1.37;;
53389;SDS011;39288;42.970;1.524;2024-03-08T03:56:43;1.90;;;1.03;;
53389;SDS011;39288;42.970;1.524;2024-03-08T03:58:46;3.33;;;1.10;;
53389;SDS011;39288;42.970;1.524;2024-03-08T03:59:46;3.07;;;1.17;;
53389;SDS011;39288;42.970;1.524;2024-03-08T04:00:48;3.55;;;1.42;;
53389;SDS011;39288;42.970;1.524;2024-03-08T04:01:48;4.80;;;1.73;;
53389;SDS011;39288;42.970;1.524;2024-03-08T04:02:49;4.00;;;1.67;;
53389;SDS011;39288;42.970;1.524;2024-03-08T04:03:51;3.55;;;1.50;;
53389;SDS011;39288;42.970;1.524;2024-03-08T04:04:52;2.30;;;1.10;;
53389;SDS011;39288;42.970;1.524;2024-03-08T04:05:54;3.78;;;1.40;;
53389;SDS011;39288;42.970;1.524;2024-03-08T04:06:55;3.93;;;1.20;;
53389;SDS011;39288;42.970;1.524;2024-03-08T04:07:55;5.47;;;1.40;;
53389;SDS011;39288;42.970;1.524;2024-03-08T04:08:56;6.10;;;1.30;;
53389;SDS011;39288;42.970;1.524;2024-03-08T04:09:57;4.23;;;1.13;;
53389;SDS011;39288;42.970;1.524;2024-03-08T04:10:57;2.80;;;1.40;;
53389;SDS011;39288;42.970;1.524;2024-03-08T04:11:58;3.10;;;1.13;;
53389;SDS011;39288;42.970;1.524;2024-03-08T04:12:59;4.33;;;1.47;;
53389;SDS011;39288;42.970;1.524;2024-03-08T04:13:59;3.00;;;1.57;;
53389;SDS011;39288;42.970;1.524;2024-03-08T04:15:00;4.47;;;1.60;;
53389;SDS011;39288;42.970;1.524;2024-03-08T04:16:00;3.77;;;1.33;;
53389;SDS011;39288;42.970;1.524;2024-03-08T04:17:01;5.47;;;1.27;;
53389;SDS011;39288;42.970;1.524;2024-03-08T04:18:02;3.15;;;1.50;;
53389;SDS011;39288;42.970;1.524;2024-03-08T04:19:03;3.13;;;1.60;;
53389;SDS011;39288;42.970;1.524;2024-03-08T04:20:04;2.95;;;1.33;;
53389;SDS011;39288;42.970;1.524;2024-03-08T04:21:09;3.30;;;1.30;;
53389;SDS011;39288;42.970;1.524;2024-03-08T04:22:10;4.53;;;1.43;;
53389;SDS011;39288;42.970;1.524;2024-03-08T04:23:10;7.33;;;1.53;;
53389;SDS011;39288;42.970;1.524;2024-03-08T04:24:11;1.90;;;0.90;;
53389;SDS011;39288;42.970;1.524;2024-03-08T04:25:11;1.57;;;0.80;;
53389;SDS011;39288;42.970;1.524;2024-03-08T04:26:11;5.57;;;1.43;;
53389;SDS011;39288;42.970;1.524;2024-03-08T04:27:13;4.93;;;1.23;;
53389;SDS011;39288;42.970;1.524;2024-03-08T04:28:14;3.45;;;0.95;;
53389;SDS011;39288;42.970;1.524;2024-03-08T04:29:15;3.00;;;1.17;;
53389;SDS011;39288;42.970;1.524;2024-03-08T04:30:15;3.73;;;1.30;;
53389;SDS011;39288;42.970;1.524;2024-03-08T04:31:16;4.07;;;1.40;;
53389;SDS011;39288;42.970;1.524;2024-03-08T04:32:16;2.20;;;1.00;;
53389;SDS011;39288;42.970;1.524;2024-03-08T04:33:17;6.90;;;1.83;;
53389;SDS011;39288;42.970;1.524;2024-03-08T04:34:18;3.50;;;1.73;;
53389;SDS011;39288;42.970;1.524;2024-03-08T04:35:18;8.23;;;2.03;;
53389;SDS011;39288;42.970;1.524;2024-03-08T04:36:20;3.80;;;1.20;;
53389;SDS011;39288;42.970;1.524;2024-03-08T04:37:21;2.60;;;1.00;;
53389;SDS011;39288;42.970;1.524;2024-03-08T04:38:22;3.85;;;1.10;;
53389;SDS011;39288;42.970;1.524;2024-03-08T04:39:22;2.73;;;0.90;;
53389;SDS011;39288;42.970;1.524;2024-03-08T04:40:23;3.93;;;1.20;;
53389;SDS011;39288;42.970;1.524;2024-03-08T04:41:23;3.10;;;1.00;;
53389;SDS011;39288;42.970;1.524;2024-03-08T04:42:24;1.13;;;1.00;;
53389;SDS011;39288;42.970;1.524;2024-03-08T04:43:25;6.53;;;1.58;;
53389;SDS011;39288;42.970;1.524;2024-03-08T04:44:26;2.97;;;0.90;;
53389;SDS011;39288;42.970;1.524;2024-03-08T04:45:27;5.90;;;1.53;;
53389;SDS011;39288;42.970;1.524;2024-03-08T04:46:28;2.27;;;0.80;;
53389;SDS011;39288;42.970;1.524;2024-03-08T04:47:28;2.00;;;1.27;;
53389;SDS011;39288;42.970;1.524;2024-03-08T04:48:29;3.83;;;0.90;;
53389;SDS011;39288;42.970;1.524;2024-03-08T04:49:29;5.37;;;1.10;;
53389;SDS011;39288;42.970;1.524;2024-03-08T04:50:30;3.50;;;1.10;;
53389;SDS011;39288;42.970;1.524;2024-03-08T04:51:30;5.93;;;1.37;;
53389;SDS011;39288;42.970;1.524;2024-03-08T04:52:30;2.33;;;1.00;;
53389;SDS011;39288;42.970;1.524;2024-03-08T04:53:31;2.53;;;1.20;;
53389;SDS011;39288;42.970;1.524;2024-03-08T04:54:33;4.65;;;1.33;;
53389;SDS011;39288;42.970;1.524;2024-03-08T04:55:34;2.83;;;1.23;;
53389;SDS011;39288;42.970;1.524;2024-03-08T04:56:35;3.83;;;1.27;;
53389;SDS011;39288;42.970;1.524;2024-03-08T04:57:36;3.55;;;1.15;;
53389;SDS011;39288;42.970;1.524;2024-03-08T04:58:36;6.13;;;1.67;;
53389;SDS011;39288;42.970;1.524;2024-03-08T04:59:37;2.97;;;1.40;;
53389;SDS011;39288;42.970;1.524;2024-03-08T05:00:37;5.87;;;1.37;;
53389;SDS011;39288;42.970;1.524;2024-03-08T05:01:38;5.43;;;1.30;;
53389;SDS011;39288;42.970;1.524;2024-03-08T05:02:38;5.73;;;1.40;;
53389;SDS011;39288;42.970;1.524;2024-03-08T05:03:39;3.00;;;1.30;;
53389;SDS011;39288;42.970;1.524;2024-03-08T05:04:39;7.07;;;1.43;;
53389;SDS011;39288;42.970;1.524;2024-03-08T05:05:39;2.27;;;1.37;;
53389;SDS011;39288;42.970;1.524;2024-03-08T05:06:40;5.93;;;2.83;;
53389;SDS011;39288;42.970;1.524;2024-03-08T05:07:41;6.88;;;2.20;;
53389;SDS011;39288;42.970;1.524;2024-03-08T05:08:45;4.88;;;1.30;;
53389;SDS011;39288;42.970;1.524;2024-03-08T05:09:46;6.50;;;1.60;;
53389;SDS011;39288;42.970;1.524;2024-03-08T05:10:51;3.13;;;1.60;;
53389;SDS011;39288;42.970;1.524;2024-03-08T05:11:51;3.43;;;1.23;;
53389;SDS011;39288;42.970;1.524;2024-03-08T05:12:52;3.90;;;1.60;;
53389;SDS011;39288;42.970;1.524;2024-03-08T05:13:53;3.83;;;1.27;;
53389;SDS011;39288;42.970;1.524;2024-03-08T05:14:53;6.30;;;1.53;;
53389;SDS011;39288;42.970;1.524;2024-03-08T05:15:54;2.27;;;1.20;;
53389;SDS011;39288;42.970;1.524;2024-03-08T05:16:54;5.47;;;1.50;;
53389;SDS011;39288;42.970;1.524;2024-03-08T05:17:54;6.93;;;2.30;;
53389;SDS011;39288;42.970;1.524;2024-03-08T05:18:57;2.60;;;1.77;;
53389;SDS011;39288;42.970;1.524;2024-03-08T05:19:58;4.47;;;1.10;;
53389;SDS011;39288;42.970;1.524;2024-03-08T05:20:58;2.57;;;0.93;;
53389;SDS011;39288;42.970;1.524;2024-03-08T05:21:59;3.63;;;1.13;;
53389;SDS011;39288;42.970;1.524;2024-03-08T05:22:59;6.50;;;1.30;;
53389;SDS011;39288;42.970;1.524;2024-03-08T05:24:00;2.70;;;1.17;;
53389;SDS011;39288;42.970;1.524;2024-03-08T05:25:01;5.17;;;1.80;;
53389;SDS011;39288;42.970;1.524;2024-03-08T05:26:01;1.77;;;0.90;;
53389;SDS011;39288;42.970;1.524;2024-03-08T05:27:01;2.63;;;1.23;;
53389;SDS011;39288;42.970;1.524;2024-03-08T05:28:03;3.42;;;1.05;;
53389;SDS011;39288;42.970;1.524;2024-03-08T05:29:04;5.17;;;3.27;;
53389;SDS011;39288;42.970;1.524;2024-03-08T05:30:04;7.37;;;4.37;;
53389;SDS011;39288;42.970;1.524;2024-03-08T05:31:05;4.43;;;2.07;;
53389;SDS011;39288;42.970;1.524;2024-03-08T05:32:07;3.17;;;1.48;;
53389;SDS011;39288;42.970;1.524;2024-03-08T05:33:07;3.13;;;1.80;;
53389;SDS011;39288;42.970;1.524;2024-03-08T05:34:11;4.30;;;1.23;;
53389;SDS011;39288;42.970;1.524;2024-03-08T05:35:14;7.32;;;2.38;;
53389;SDS011;39288;42.970;1.524;2024-03-08T05:37:17;4.03;;;1.20;;
53389;SDS011;39288;42.970;1.524;2024-03-08T05:38:17;4.13;;;1.17;;
53389;SDS011;39288;42.970;1.524;2024-03-08T05:39:18;2.83;;;1.13;;
53389;SDS011;39288;42.970;1.524;2024-03-08T05:40:19;2.28;;;1.40;;
53389;SDS011;39288;42.970;1.524;2024-03-08T05:41:20;4.03;;;1.20;;
53389;SDS011;39288;42.970;1.524;2024-03-08T05:42:20;3.37;;;1.00;;
53389;SDS011;39288;42.970;1.524;2024-03-08T05:43:21;4.27;;;1.23;;
53389;SDS011;39288;42.970;1.524;2024-03-08T05:44:21;4.60;;;1.10;;
53389;SDS011;39288;42.970;1.524;2024-03-08T05:45:22;3.22;;;1.05;;
53389;SDS011;39288;42.970;1.524;2024-03-08T05:46:25;3.15;;;1.00;;
53389;SDS011;39288;42.970;1.524;2024-03-08T05:47:25;3.63;;;1.10;;
53389;SDS011;39288;42.970;1.524;2024-03-08T05:48:26;2.10;;;0.77;;
53389;SDS011;39288;42.970;1.524;2024-03-08T05:49:28;4.07;;;1.13;;
53389;SDS011;39288;42.970;1.524;2024-03-08T05:50:28;3.20;;;1.10;;
53389;SDS011;39288;42.970;1.524;2024-03-08T05:51:29;2.17;;;1.20;;
53389;SDS011;39288;42.970;1.524;2024-03-08T05:52:29;2.60;;;1.00;;
53389;SDS011;39288;42.970;1.524;2024-03-08T05:53:29;3.10;;;1.23;;
53389;SDS011;39288;42.970;1.524;2024-03-08T05:54:32;2.63;;;1.00;;
53389;SDS011;39288;42.970;1.524;2024-03-08T05:55:33;3.63;;;1.30;;
53389;SDS011;39288;42.970;1.524;2024-03-08T05:57:36;5.32;;;2.53;;
53389;SDS011;39288;42.970;1.524;2024-03-08T05:58:40;10.70;;;3.63;;
53389;SDS011;39288;42.970;1.524;2024-03-08T05:59:40;6.20;;;3.40;;
53389;SDS011;39288;42.970;1.524;2024-03-08T06:00:41;4.13;;;2.47;;
53389;SDS011;39288;42.970;1.524;2024-03-08T06:01:41;4.10;;;2.33;;
53389;SDS011;39288;42.970;1.524;2024-03-08T06:02:42;4.70;;;1.60;;
53389;SDS011;39288;42.970;1.524;2024-03-08T06:03:42;6.57;;;1.60;;
53389;SDS011;39288;42.970;1.524;2024-03-08T06:04:47;4.07;;;1.73;;
53389;SDS011;39288;42.970;1.524;2024-03-08T06:05:48;8.93;;;2.13;;
53389;SDS011;39288;42.970;1.524;2024-03-08T06:06:49;7.22;;;2.67;;
53389;SDS011;39288;42.970;1.524;2024-03-08T06:07:51;8.02;;;2.75;;
53389;SDS011;39288;42.970;1.524;2024-03-08T06:08:53;16.48;;;2.67;;
53389;SDS011;39288;42.970;1.524;2024-03-08T06:09:56;4.18;;;1.60;;
53389;SDS011;39288;42.970;1.524;2024-03-08T06:10:56;10.87;;;2.00;;
53389;SDS011;39288;42.970;1.524;2024-03-08T06:11:59;6.90;;;2.40;;
53389;SDS011;39288;42.970;1.524;2024-03-08T06:12:59;7.27;;;2.00;;